sensor_id;sensor_type;location;lat;lon;timestamp;P1;durP1;ratioP1;P2;durP2;ratioP2
72603;SDS011;60645;56.968;24.196;2022-10-17T00:02:13;2.80;;;1.83;;
72603;SDS011;60645;56.968;24.196;2022-10-17T00:04:46;3.05;;;1.98;;
72603;SDS011;60645;56.968;24.196;2022-10-17T00:07:45;3.30;;;1.83;;
72603;SDS011;60645;56.968;24.196;2022-10-17T00:11:14;2.47;;;1.90;;
72603;SDS011;60645;56.968;24.196;2022-10-17T00:14:19;3.95;;;1.80;;
72603;SDS011;60645;56.968;24.196;2022-10-17T00:17:17;2.92;;;1.45;;
72603;SDS011;60645;56.968;24.196;2022-10-17T00:20:09;3.92;;;1.85;;
72603;SDS011;60645;56.968;24.196;2022-10-17T00:22:46;2.45;;;1.80;;
72603;SDS011;60645;56.968;24.196;2022-10-17T00:25:37;2.45;;;1.40;;
72603;SDS011;60645;56.968;24.196;2022-10-17T00:28:23;2.55;;;1.70;;
72603;SDS011;60645;56.968;24.196;2022-10-17T00:31:05;2.55;;;1.55;;
72603;SDS011;60645;56.968;24.196;2022-10-17T00:33:44;2.72;;;1.63;;
72603;SDS011;60645;56.968;24.196;2022-10-17T00:36:58;2.30;;;1.30;;
72603;SDS011;60645;56.968;24.196;2022-10-17T00:39:43;2.33;;;1.55;;
72603;SDS011;60645;56.968;24.196;2022-10-17T00:42:30;2.60;;;1.55;;
72603;SDS011;60645;56.968;24.196;2022-10-17T00:45:29;2.70;;;1.55;;
72603;SDS011;60645;56.968;24.196;2022-10-17T00:48:35;2.03;;;1.63;;
72603;SDS011;60645;56.968;24.196;2022-10-17T00:51:32;1.92;;;1.48;;
72603;SDS011;60645;56.968;24.196;2022-10-17T00:54:55;1.95;;;1.45;;
72603;SDS011;60645;56.968;24.196;2022-10-17T00:57:52;2.42;;;1.40;;
72603;SDS011;60645;56.968;24.196;2022-10-17T01:00:40;2.20;;;1.33;;
72603;SDS011;60645;56.968;24.196;2022-10-17T01:03:15;2.15;;;1.40;;
72603;SDS011;60645;56.968;24.196;2022-10-17T01:06:12;2.85;;;1.33;;
72603;SDS011;60645;56.968;24.196;2022-10-17T01:08:57;2.33;;;2.13;;
72603;SDS011;60645;56.968;24.196;2022-10-17T01:35:51;2.70;;;1.80;;
72603;SDS011;60645;56.968;24.196;2022-10-17T01:39:09;1.70;;;1.13;;
72603;SDS011;60645;56.968;24.196;2022-10-17T01:42:29;1.95;;;1.17;;
72603;SDS011;60645;56.968;24.196;2022-10-17T01:45:52;2.22;;;1.40;;
72603;SDS011;60645;56.968;24.196;2022-10-17T01:48:56;2.03;;;1.70;;
72603;SDS011;60645;56.968;24.196;2022-10-17T01:52:09;2.00;;;1.10;;
72603;SDS011;60645;56.968;24.196;2022-10-17T01:58:15;1.77;;;0.93;;
72603;SDS011;60645;56.968;24.196;2022-10-17T02:01:38;1.45;;;0.98;;
72603;SDS011;60645;56.968;24.196;2022-10-17T02:04:23;2.78;;;1.58;;
72603;SDS011;60645;56.968;24.196;2022-10-17T02:07:16;1.77;;;1.02;;
72603;SDS011;60645;56.968;24.196;2022-10-17T02:27:46;2.08;;;1.23;;
72603;SDS011;60645;56.968;24.196;2022-10-17T02:34:49;2.15;;;0.95;;
72603;SDS011;60645;56.968;24.196;2022-10-17T02:37:48;2.00;;;1.00;;
72603;SDS011;60645;56.968;24.196;2022-10-17T02:40:26;1.85;;;0.80;;
72603;SDS011;60645;56.968;24.196;2022-10-17T02:43:23;2.10;;;0.93;;
72603;SDS011;60645;56.968;24.196;2022-10-17T02:46:15;1.70;;;0.90;;
72603;SDS011;60645;56.968;24.196;2022-10-17T02:55:46;1.33;;;0.80;;
72603;SDS011;60645;56.968;24.196;2022-10-17T02:59:00;1.35;;;1.02;;
72603;SDS011;60645;56.968;24.196;2022-10-17T03:01:46;1.73;;;0.80;;
72603;SDS011;60645;56.968;24.196;2022-10-17T03:04:33;1.50;;;0.93;;
72603;SDS011;60645;56.968;24.196;2022-10-17T03:07:20;1.17;;;0.63;;
72603;SDS011;60645;56.968;24.196;2022-10-17T03:10:24;1.52;;;0.90;;
72603;SDS011;60645;56.968;24.196;2022-10-17T03:19:18;1.67;;;0.68;;
72603;SDS011;60645;56.968;24.196;2022-10-17T03:22:07;2.03;;;1.23;;
72603;SDS011;60645;56.968;24.196;2022-10-17T03:25:00;0.82;;;0.40;;
72603;SDS011;60645;56.968;24.196;2022-10-17T03:28:15;1.42;;;0.95;;
72603;SDS011;60645;56.968;24.196;2022-10-17T03:31:24;1.63;;;0.80;;
72603;SDS011;60645;56.968;24.196;2022-10-17T03:34:44;2.22;;;0.63;;
72603;SDS011;60645;56.968;24.196;2022-10-17T03:37:46;1.10;;;0.50;;
72603;SDS011;60645;56.968;24.196;2022-10-17T03:41:02;2.58;;;0.77;;
72603;SDS011;60645;56.968;24.196;2022-10-17T03:43:45;1.05;;;0.40;;
72603;SDS011;60645;56.968;24.196;2022-10-17T03:46:31;1.45;;;0.70;;
72603;SDS011;60645;56.968;24.196;2022-10-17T03:49:33;2.58;;;0.80;;
72603;SDS011;60645;56.968;24.196;2022-10-17T03:52:47;2.53;;;0.57;;
72603;SDS011;60645;56.968;24.196;2022-10-17T03:55:25;2.08;;;0.43;;
72603;SDS011;60645;56.968;24.196;2022-10-17T03:58:26;1.90;;;0.63;;
72603;SDS011;60645;56.968;24.196;2022-10-17T04:01:37;2.28;;;0.82;;
72603;SDS011;60645;56.968;24.196;2022-10-17T04:04:43;1.23;;;0.73;;
72603;SDS011;60645;56.968;24.196;2022-10-17T04:07:20;1.13;;;0.43;;
72603;SDS011;60645;56.968;24.196;2022-10-17T04:10:31;1.52;;;0.52;;
72603;SDS011;60645;56.968;24.196;2022-10-17T04:13:27;1.10;;;0.55;;
72603;SDS011;60645;56.968;24.196;2022-10-17T04:16:17;1.20;;;0.50;;
72603;SDS011;60645;56.968;24.196;2022-10-17T04:19:11;1.13;;;0.43;;
72603;SDS011;60645;56.968;24.196;2022-10-17T04:22:17;2.25;;;0.40;;
72603;SDS011;60645;56.968;24.196;2022-10-17T04:25:05;1.90;;;0.40;;
72603;SDS011;60645;56.968;24.196;2022-10-17T04:28:14;0.88;;;0.50;;
72603;SDS011;60645;56.968;24.196;2022-10-17T04:31:20;1.30;;;0.55;;
72603;SDS011;60645;56.968;24.196;2022-10-17T04:34:18;1.13;;;0.43;;
72603;SDS011;60645;56.968;24.196;2022-10-17T04:37:19;2.05;;;0.38;;
72603;SDS011;60645;56.968;24.196;2022-10-17T04:40:19;3.67;;;0.95;;
72603;SDS011;60645;56.968;24.196;2022-10-17T04:43:41;1.95;;;0.52;;
72603;SDS011;60645;56.968;24.196;2022-10-17T04:46:33;2.67;;;0.60;;
72603;SDS011;60645;56.968;24.196;2022-10-17T04:49:26;1.33;;;0.32;;
72603;SDS011;60645;56.968;24.196;2022-10-17T04:52:55;1.00;;;0.43;;
72603;SDS011;60645;56.968;24.196;2022-10-17T04:55:53;1.40;;;0.40;;
72603;SDS011;60645;56.968;24.196;2022-10-17T04:58:46;2.55;;;0.75;;
72603;SDS011;60645;56.968;24.196;2022-10-17T05:01:29;0.95;;;0.30;;
72603;SDS011;60645;56.968;24.196;2022-10-17T05:04:17;1.88;;;0.45;;
72603;SDS011;60645;56.968;24.196;2022-10-17T05:07:33;2.38;;;0.65;;
72603;SDS011;60645;56.968;24.196;2022-10-17T05:10:36;1.45;;;0.50;;
72603;SDS011;60645;56.968;24.196;2022-10-17T05:13:48;1.40;;;0.47;;
72603;SDS011;60645;56.968;24.196;2022-10-17T05:17:11;1.80;;;0.30;;
72603;SDS011;60645;56.968;24.196;2022-10-17T05:20:33;1.77;;;0.50;;
72603;SDS011;60645;56.968;24.196;2022-10-17T05:23:32;1.85;;;0.73;;
72603;SDS011;60645;56.968;24.196;2022-10-17T05:26:16;1.80;;;0.52;;
72603;SDS011;60645;56.968;24.196;2022-10-17T05:28:59;1.40;;;0.40;;
72603;SDS011;60645;56.968;24.196;2022-10-17T05:31:55;1.15;;;0.43;;
72603;SDS011;60645;56.968;24.196;2022-10-17T05:34:36;1.35;;;0.55;;
72603;SDS011;60645;56.968;24.196;2022-10-17T05:38:14;2.08;;;0.28;;
72603;SDS011;60645;56.968;24.196;2022-10-17T05:41:12;1.50;;;0.35;;
72603;SDS011;60645;56.968;24.196;2022-10-17T05:43:41;1.33;;;0.68;;
72603;SDS011;60645;56.968;24.196;2022-10-17T05:46:43;1.73;;;0.40;;
72603;SDS011;60645;56.968;24.196;2022-10-17T05:49:32;1.30;;;0.55;;
72603;SDS011;60645;56.968;24.196;2022-10-17T05:52:37;1.48;;;0.40;;
72603;SDS011;60645;56.968;24.196;2022-10-17T05:55:32;1.13;;;0.30;;
72603;SDS011;60645;56.968;24.196;2022-10-17T05:58:40;5.57;;;0.73;;
72603;SDS011;60645;56.968;24.196;2022-10-17T06:01:36;5.47;;;0.70;;
72603;SDS011;60645;56.968;24.196;2022-10-17T06:04:27;6.32;;;1.05;;
72603;SDS011;60645;56.968;24.196;2022-10-17T06:07:34;4.80;;;0.70;;
72603;SDS011;60645;56.968;24.196;2022-10-17T06:10:39;7.47;;;1.50;;
72603;SDS011;60645;56.968;24.196;2022-10-17T06:13:24;5.00;;;1.33;;
72603;SDS011;60645;56.968;24.196;2022-10-17T06:16:25;5.10;;;1.20;;
72603;SDS011;60645;56.968;24.196;2022-10-17T06:19:13;5.15;;;0.88;;
72603;SDS011;60645;56.968;24.196;2022-10-17T06:22:10;7.40;;;1.35;;
72603;SDS011;60645;56.968;24.196;2022-10-17T06:25:12;5.70;;;1.08;;
72603;SDS011;60645;56.968;24.196;2022-10-17T06:28:10;9.43;;;1.75;;
72603;SDS011;60645;56.968;24.196;2022-10-17T06:31:14;7.50;;;1.30;;
72603;SDS011;60645;56.968;24.196;2022-10-17T06:34:11;17.50;;;2.55;;
72603;SDS011;60645;56.968;24.196;2022-10-17T06:37:06;11.63;;;2.20;;
72603;SDS011;60645;56.968;24.196;2022-10-17T06:40:08;8.88;;;2.10;;
72603;SDS011;60645;56.968;24.196;2022-10-17T06:43:02;6.55;;;1.27;;
72603;SDS011;60645;56.968;24.196;2022-10-17T06:45:58;11.32;;;1.02;;
72603;SDS011;60645;56.968;24.196;2022-10-17T06:49:04;7.25;;;1.25;;
72603;SDS011;60645;56.968;24.196;2022-10-17T06:52:09;8.10;;;1.00;;
72603;SDS011;60645;56.968;24.196;2022-10-17T06:55:08;8.30;;;1.35;;
72603;SDS011;60645;56.968;24.196;2022-10-17T06:58:13;11.10;;;1.00;;
72603;SDS011;60645;56.968;24.196;2022-10-17T07:01:21;3.63;;;0.85;;
72603;SDS011;60645;56.968;24.196;2022-10-17T07:04:44;8.50;;;1.77;;
72603;SDS011;60645;56.968;24.196;2022-10-17T07:07:37;8.18;;;1.38;;
72603;SDS011;60645;56.968;24.196;2022-10-17T07:10:47;3.47;;;0.93;;
72603;SDS011;60645;56.968;24.196;2022-10-17T07:13:48;6.47;;;1.17;;
72603;SDS011;60645;56.968;24.196;2022-10-17T07:16:39;6.95;;;1.33;;
72603;SDS011;60645;56.968;24.196;2022-10-17T07:19:10;9.05;;;0.93;;
72603;SDS011;60645;56.968;24.196;2022-10-17T07:22:22;5.00;;;1.02;;
72603;SDS011;60645;56.968;24.196;2022-10-17T07:25:13;5.75;;;0.65;;
72603;SDS011;60645;56.968;24.196;2022-10-17T07:28:04;5.32;;;1.95;;
72603;SDS011;60645;56.968;24.196;2022-10-17T07:31:19;4.72;;;0.95;;
72603;SDS011;60645;56.968;24.196;2022-10-17T07:34:13;5.10;;;0.82;;
72603;SDS011;60645;56.968;24.196;2022-10-17T07:36:54;5.15;;;0.80;;
72603;SDS011;60645;56.968;24.196;2022-10-17T07:39:59;4.40;;;0.70;;
72603;SDS011;60645;56.968;24.196;2022-10-17T07:42:36;4.68;;;0.82;;
72603;SDS011;60645;56.968;24.196;2022-10-17T07:45:37;5.40;;;0.88;;
72603;SDS011;60645;56.968;24.196;2022-10-17T07:48:30;7.85;;;0.73;;
72603;SDS011;60645;56.968;24.196;2022-10-17T07:51:24;6.65;;;1.25;;
72603;SDS011;60645;56.968;24.196;2022-10-17T07:54:39;3.00;;;0.73;;
72603;SDS011;60645;56.968;24.196;2022-10-17T07:57:51;10.18;;;1.27;;
72603;SDS011;60645;56.968;24.196;2022-10-17T08:03:57;6.18;;;1.35;;
72603;SDS011;60645;56.968;24.196;2022-10-17T08:06:49;8.20;;;1.15;;
72603;SDS011;60645;56.968;24.196;2022-10-17T08:09:55;8.77;;;1.13;;
72603;SDS011;60645;56.968;24.196;2022-10-17T08:12:47;11.00;;;1.85;;
72603;SDS011;60645;56.968;24.196;2022-10-17T08:15:46;8.82;;;1.38;;
72603;SDS011;60645;56.968;24.196;2022-10-17T08:19:10;9.93;;;1.33;;
72603;SDS011;60645;56.968;24.196;2022-10-17T08:21:45;12.18;;;1.33;;
72603;SDS011;60645;56.968;24.196;2022-10-17T08:24:14;9.80;;;1.30;;
72603;SDS011;60645;56.968;24.196;2022-10-17T08:27:11;10.75;;;1.23;;
72603;SDS011;60645;56.968;24.196;2022-10-17T08:30:02;6.35;;;1.02;;
72603;SDS011;60645;56.968;24.196;2022-10-17T08:33:06;7.68;;;0.88;;
72603;SDS011;60645;56.968;24.196;2022-10-17T08:39:15;9.25;;;1.45;;
72603;SDS011;60645;56.968;24.196;2022-10-17T08:45:51;9.35;;;1.10;;
72603;SDS011;60645;56.968;24.196;2022-10-17T08:49:05;8.65;;;1.15;;
72603;SDS011;60645;56.968;24.196;2022-10-17T08:52:57;9.55;;;1.00;;
72603;SDS011;60645;56.968;24.196;2022-10-17T08:58:45;7.57;;;1.15;;
72603;SDS011;60645;56.968;24.196;2022-10-17T09:01:50;6.70;;;1.23;;
72603;SDS011;60645;56.968;24.196;2022-10-17T09:12:42;10.18;;;1.88;;
72603;SDS011;60645;56.968;24.196;2022-10-17T09:19:29;11.65;;;1.50;;
72603;SDS011;60645;56.968;24.196;2022-10-17T09:22:51;3.97;;;1.00;;
72603;SDS011;60645;56.968;24.196;2022-10-17T09:25:55;6.53;;;0.73;;
72603;SDS011;60645;56.968;24.196;2022-10-17T09:28:49;7.88;;;1.45;;
72603;SDS011;60645;56.968;24.196;2022-10-17T09:35:03;4.25;;;1.25;;
72603;SDS011;60645;56.968;24.196;2022-10-17T09:38:16;5.93;;;1.45;;
72603;SDS011;60645;56.968;24.196;2022-10-17T09:48:25;7.05;;;1.38;;
72603;SDS011;60645;56.968;24.196;2022-10-17T09:51:41;7.45;;;0.95;;
72603;SDS011;60645;56.968;24.196;2022-10-17T09:54:45;8.05;;;1.30;;
72603;SDS011;60645;56.968;24.196;2022-10-17T10:00:51;6.57;;;0.95;;
72603;SDS011;60645;56.968;24.196;2022-10-17T10:04:19;6.40;;;0.82;;
72603;SDS011;60645;56.968;24.196;2022-10-17T10:07:09;9.02;;;1.08;;
72603;SDS011;60645;56.968;24.196;2022-10-17T10:10:22;6.57;;;1.55;;
72603;SDS011;60645;56.968;24.196;2022-10-17T10:16:40;5.82;;;0.95;;
72603;SDS011;60645;56.968;24.196;2022-10-17T10:19:31;5.60;;;0.95;;
72603;SDS011;60645;56.968;24.196;2022-10-17T10:22:24;8.80;;;1.08;;
72603;SDS011;60645;56.968;24.196;2022-10-17T10:28:22;4.85;;;0.63;;
72603;SDS011;60645;56.968;24.196;2022-10-17T10:34:28;6.10;;;0.65;;
72603;SDS011;60645;56.968;24.196;2022-10-17T10:43:41;5.18;;;0.80;;
72603;SDS011;60645;56.968;24.196;2022-10-17T10:47:05;5.70;;;0.70;;
72603;SDS011;60645;56.968;24.196;2022-10-17T10:50:17;7.35;;;0.63;;
72603;SDS011;60645;56.968;24.196;2022-10-17T10:56:58;4.63;;;0.93;;
72603;SDS011;60645;56.968;24.196;2022-10-17T10:59:59;6.13;;;1.65;;
72603;SDS011;60645;56.968;24.196;2022-10-17T11:03:25;4.88;;;0.85;;
72603;SDS011;60645;56.968;24.196;2022-10-17T11:06:25;4.95;;;1.00;;
72603;SDS011;60645;56.968;24.196;2022-10-17T11:16:31;5.78;;;1.02;;
72603;SDS011;60645;56.968;24.196;2022-10-17T11:20:11;6.85;;;0.65;;
72603;SDS011;60645;56.968;24.196;2022-10-17T11:23:50;9.30;;;1.15;;
72603;SDS011;60645;56.968;24.196;2022-10-17T11:27:06;9.93;;;0.73;;
72603;SDS011;60645;56.968;24.196;2022-10-17T11:29:49;6.30;;;0.70;;
72603;SDS011;60645;56.968;24.196;2022-10-17T11:32:35;7.18;;;1.10;;
72603;SDS011;60645;56.968;24.196;2022-10-17T11:35:46;7.00;;;1.35;;
72603;SDS011;60645;56.968;24.196;2022-10-17T11:44:48;12.82;;;1.45;;
72603;SDS011;60645;56.968;24.196;2022-10-17T11:47:56;20.38;;;2.92;;
72603;SDS011;60645;56.968;24.196;2022-10-17T12:11:15;10.95;;;1.83;;
72603;SDS011;60645;56.968;24.196;2022-10-17T12:14:35;6.93;;;1.35;;
72603;SDS011;60645;56.968;24.196;2022-10-17T12:17:56;5.30;;;0.93;;
72603;SDS011;60645;56.968;24.196;2022-10-17T12:20:55;5.70;;;0.82;;
72603;SDS011;60645;56.968;24.196;2022-10-17T12:23:54;5.35;;;0.63;;
72603;SDS011;60645;56.968;24.196;2022-10-17T12:26:50;7.28;;;0.88;;
72603;SDS011;60645;56.968;24.196;2022-10-17T12:29:31;6.43;;;0.80;;
72603;SDS011;60645;56.968;24.196;2022-10-17T12:32:19;6.72;;;0.70;;
72603;SDS011;60645;56.968;24.196;2022-10-17T12:35:45;7.60;;;0.70;;
72603;SDS011;60645;56.968;24.196;2022-10-17T12:42:43;7.05;;;0.73;;
72603;SDS011;60645;56.968;24.196;2022-10-17T12:49:03;6.35;;;0.85;;
72603;SDS011;60645;56.968;24.196;2022-10-17T12:55:58;5.68;;;0.60;;
72603;SDS011;60645;56.968;24.196;2022-10-17T12:58:49;7.60;;;1.42;;
72603;SDS011;60645;56.968;24.196;2022-10-17T13:01:48;9.55;;;1.40;;
72603;SDS011;60645;56.968;24.196;2022-10-17T13:12:00;7.05;;;1.27;;
72603;SDS011;60645;56.968;24.196;2022-10-17T13:14:51;7.50;;;1.08;;
72603;SDS011;60645;56.968;24.196;2022-10-17T13:24:00;4.20;;;0.82;;
72603;SDS011;60645;56.968;24.196;2022-10-17T13:26:49;5.65;;;0.93;;
72603;SDS011;60645;56.968;24.196;2022-10-17T13:29:42;8.65;;;0.73;;
72603;SDS011;60645;56.968;24.196;2022-10-17T13:32:39;6.25;;;1.15;;
72603;SDS011;60645;56.968;24.196;2022-10-17T13:35:34;5.28;;;1.30;;
72603;SDS011;60645;56.968;24.196;2022-10-17T13:38:54;5.72;;;1.00;;
72603;SDS011;60645;56.968;24.196;2022-10-17T13:41:44;13.35;;;4.13;;
72603;SDS011;60645;56.968;24.196;2022-10-17T13:47:45;6.35;;;1.10;;
72603;SDS011;60645;56.968;24.196;2022-10-17T13:50:37;8.13;;;2.03;;
72603;SDS011;60645;56.968;24.196;2022-10-17T13:53:35;7.00;;;1.40;;
72603;SDS011;60645;56.968;24.196;2022-10-17T13:56:28;8.13;;;1.40;;
72603;SDS011;60645;56.968;24.196;2022-10-17T13:59:40;5.60;;;0.90;;
72603;SDS011;60645;56.968;24.196;2022-10-17T14:02:34;6.38;;;0.85;;
72603;SDS011;60645;56.968;24.196;2022-10-17T14:05:32;4.50;;;1.08;;
72603;SDS011;60645;56.968;24.196;2022-10-17T14:08:48;4.90;;;0.73;;
72603;SDS011;60645;56.968;24.196;2022-10-17T14:11:55;5.40;;;0.90;;
72603;SDS011;60645;56.968;24.196;2022-10-17T14:15:00;4.75;;;0.52;;
72603;SDS011;60645;56.968;24.196;2022-10-17T14:17:43;3.53;;;0.93;;
72603;SDS011;60645;56.968;24.196;2022-10-17T14:20:48;2.55;;;0.70;;
72603;SDS011;60645;56.968;24.196;2022-10-17T14:24:26;4.63;;;0.77;;
72603;SDS011;60645;56.968;24.196;2022-10-17T14:30:52;4.38;;;0.95;;
72603;SDS011;60645;56.968;24.196;2022-10-17T14:34:36;5.78;;;1.05;;
72603;SDS011;60645;56.968;24.196;2022-10-17T14:37:46;2.10;;;0.40;;
72603;SDS011;60645;56.968;24.196;2022-10-17T14:41:05;4.38;;;0.50;;
72603;SDS011;60645;56.968;24.196;2022-10-17T14:44:27;5.18;;;1.15;;
72603;SDS011;60645;56.968;24.196;2022-10-17T14:47:23;3.40;;;1.25;;
72603;SDS011;60645;56.968;24.196;2022-10-17T14:56:36;3.65;;;0.40;;
72603;SDS011;60645;56.968;24.196;2022-10-17T14:59:37;5.25;;;0.60;;
72603;SDS011;60645;56.968;24.196;2022-10-17T15:02:27;3.65;;;0.68;;
72603;SDS011;60645;56.968;24.196;2022-10-17T15:05:30;3.17;;;0.70;;
72603;SDS011;60645;56.968;24.196;2022-10-17T15:08:44;5.57;;;0.60;;
72603;SDS011;60645;56.968;24.196;2022-10-17T15:11:35;3.10;;;0.60;;
72603;SDS011;60645;56.968;24.196;2022-10-17T15:14:28;5.55;;;0.63;;
72603;SDS011;60645;56.968;24.196;2022-10-17T15:17:34;3.42;;;0.80;;
72603;SDS011;60645;56.968;24.196;2022-10-17T15:20:32;4.22;;;0.75;;
72603;SDS011;60645;56.968;24.196;2022-10-17T15:23:40;4.60;;;0.45;;
72603;SDS011;60645;56.968;24.196;2022-10-17T15:29:18;2.95;;;0.52;;
72603;SDS011;60645;56.968;24.196;2022-10-17T15:32:36;5.18;;;0.60;;
72603;SDS011;60645;56.968;24.196;2022-10-17T15:35:42;2.42;;;0.63;;
72603;SDS011;60645;56.968;24.196;2022-10-17T15:38:52;2.28;;;0.47;;
72603;SDS011;60645;56.968;24.196;2022-10-17T15:42:18;4.95;;;1.38;;
72603;SDS011;60645;56.968;24.196;2022-10-17T15:45:28;3.00;;;0.35;;
72603;SDS011;60645;56.968;24.196;2022-10-17T15:48:29;1.80;;;0.38;;
72603;SDS011;60645;56.968;24.196;2022-10-17T15:51:16;2.35;;;0.70;;
72603;SDS011;60645;56.968;24.196;2022-10-17T15:54:19;3.75;;;0.45;;
72603;SDS011;60645;56.968;24.196;2022-10-17T15:57:16;4.45;;;0.85;;
72603;SDS011;60645;56.968;24.196;2022-10-17T16:00:36;2.95;;;0.43;;
72603;SDS011;60645;56.968;24.196;2022-10-17T16:04:02;1.98;;;0.57;;
72603;SDS011;60645;56.968;24.196;2022-10-17T16:06:57;4.18;;;0.70;;
72603;SDS011;60645;56.968;24.196;2022-10-17T16:10:05;3.53;;;0.65;;
72603;SDS011;60645;56.968;24.196;2022-10-17T16:13:26;1.95;;;0.55;;
72603;SDS011;60645;56.968;24.196;2022-10-17T16:16:22;3.25;;;0.70;;
72603;SDS011;60645;56.968;24.196;2022-10-17T16:19:48;4.18;;;0.82;;
72603;SDS011;60645;56.968;24.196;2022-10-17T16:22:53;2.30;;;0.70;;
72603;SDS011;60645;56.968;24.196;2022-10-17T16:25:53;3.38;;;0.60;;
72603;SDS011;60645;56.968;24.196;2022-10-17T16:29:07;2.70;;;0.52;;
72603;SDS011;60645;56.968;24.196;2022-10-17T16:32:11;4.10;;;0.63;;
72603;SDS011;60645;56.968;24.196;2022-10-17T16:35:28;3.15;;;0.50;;
72603;SDS011;60645;56.968;24.196;2022-10-17T16:38:27;2.13;;;0.43;;
72603;SDS011;60645;56.968;24.196;2022-10-17T16:41:33;2.60;;;0.43;;
72603;SDS011;60645;56.968;24.196;2022-10-17T16:44:47;1.92;;;0.73;;
72603;SDS011;60645;56.968;24.196;2022-10-17T16:47:41;2.13;;;0.85;;
72603;SDS011;60645;56.968;24.196;2022-10-17T16:50:55;3.00;;;0.47;;
72603;SDS011;60645;56.968;24.196;2022-10-17T16:53:42;2.28;;;0.52;;
72603;SDS011;60645;56.968;24.196;2022-10-17T16:56:57;3.10;;;0.85;;
72603;SDS011;60645;56.968;24.196;2022-10-17T16:59:48;2.00;;;0.50;;
72603;SDS011;60645;56.968;24.196;2022-10-17T17:02:24;3.00;;;0.75;;
72603;SDS011;60645;56.968;24.196;2022-10-17T17:05:14;1.30;;;0.70;;
72603;SDS011;60645;56.968;24.196;2022-10-17T17:08:08;3.30;;;0.73;;
72603;SDS011;60645;56.968;24.196;2022-10-17T17:13:58;3.25;;;0.90;;
72603;SDS011;60645;56.968;24.196;2022-10-17T17:17:01;2.25;;;0.52;;
72603;SDS011;60645;56.968;24.196;2022-10-17T17:20:02;3.28;;;0.75;;
72603;SDS011;60645;56.968;24.196;2022-10-17T17:22:48;2.08;;;0.63;;
72603;SDS011;60645;56.968;24.196;2022-10-17T17:26:06;2.78;;;0.70;;
72603;SDS011;60645;56.968;24.196;2022-10-17T17:32:13;3.08;;;1.17;;
72603;SDS011;60645;56.968;24.196;2022-10-17T17:35:18;2.15;;;0.70;;
72603;SDS011;60645;56.968;24.196;2022-10-17T17:38:17;2.63;;;0.75;;
72603;SDS011;60645;56.968;24.196;2022-10-17T17:41:03;1.98;;;0.85;;
72603;SDS011;60645;56.968;24.196;2022-10-17T17:44:18;2.17;;;1.15;;
72603;SDS011;60645;56.968;24.196;2022-10-17T17:46:56;2.67;;;0.65;;
72603;SDS011;60645;56.968;24.196;2022-10-17T17:50:17;3.42;;;0.90;;
72603;SDS011;60645;56.968;24.196;2022-10-17T17:53:06;1.95;;;0.63;;
72603;SDS011;60645;56.968;24.196;2022-10-17T17:56:24;2.40;;;1.02;;
72603;SDS011;60645;56.968;24.196;2022-10-17T18:02:45;3.72;;;0.82;;
72603;SDS011;60645;56.968;24.196;2022-10-17T18:05:54;1.83;;;0.82;;
72603;SDS011;60645;56.968;24.196;2022-10-17T18:08:42;4.03;;;0.93;;
72603;SDS011;60645;56.968;24.196;2022-10-17T18:11:39;10.15;;;4.10;;
72603;SDS011;60645;56.968;24.196;2022-10-17T18:14:37;11.40;;;3.78;;
72603;SDS011;60645;56.968;24.196;2022-10-17T18:17:53;10.07;;;3.25;;
72603;SDS011;60645;56.968;24.196;2022-10-17T18:20:43;12.65;;;4.40;;
72603;SDS011;60645;56.968;24.196;2022-10-17T18:23:30;11.07;;;3.42;;
72603;SDS011;60645;56.968;24.196;2022-10-17T18:26:34;12.10;;;4.38;;
72603;SDS011;60645;56.968;24.196;2022-10-17T18:29:22;11.88;;;3.38;;
72603;SDS011;60645;56.968;24.196;2022-10-17T18:32:30;12.45;;;3.55;;
72603;SDS011;60645;56.968;24.196;2022-10-17T18:35:34;9.48;;;2.85;;
72603;SDS011;60645;56.968;24.196;2022-10-17T18:38:34;12.45;;;3.15;;
72603;SDS011;60645;56.968;24.196;2022-10-17T18:41:35;11.38;;;2.70;;
72603;SDS011;60645;56.968;24.196;2022-10-17T18:44:32;14.27;;;2.90;;
72603;SDS011;60645;56.968;24.196;2022-10-17T18:47:42;13.18;;;3.33;;
72603;SDS011;60645;56.968;24.196;2022-10-17T18:51:03;11.00;;;4.20;;
72603;SDS011;60645;56.968;24.196;2022-10-17T18:54:20;12.55;;;3.83;;
72603;SDS011;60645;56.968;24.196;2022-10-17T18:57:21;17.27;;;4.10;;
72603;SDS011;60645;56.968;24.196;2022-10-17T19:00:06;11.60;;;2.53;;
72603;SDS011;60645;56.968;24.196;2022-10-17T19:02:40;6.93;;;2.25;;
72603;SDS011;60645;56.968;24.196;2022-10-17T19:05:35;8.70;;;3.00;;
72603;SDS011;60645;56.968;24.196;2022-10-17T19:08:34;10.20;;;3.17;;
72603;SDS011;60645;56.968;24.196;2022-10-17T19:11:30;8.75;;;1.90;;
72603;SDS011;60645;56.968;24.196;2022-10-17T19:14:26;8.40;;;2.05;;
72603;SDS011;60645;56.968;24.196;2022-10-17T19:17:22;6.97;;;2.08;;
72603;SDS011;60645;56.968;24.196;2022-10-17T19:20:32;5.18;;;1.95;;
72603;SDS011;60645;56.968;24.196;2022-10-17T19:23:31;6.65;;;2.03;;
72603;SDS011;60645;56.968;24.196;2022-10-17T19:26:49;8.60;;;2.70;;
72603;SDS011;60645;56.968;24.196;2022-10-17T19:29:27;6.30;;;2.08;;
72603;SDS011;60645;56.968;24.196;2022-10-17T19:32:30;5.47;;;2.03;;
72603;SDS011;60645;56.968;24.196;2022-10-17T19:35:23;6.82;;;2.05;;
72603;SDS011;60645;56.968;24.196;2022-10-17T19:38:21;6.18;;;2.00;;
72603;SDS011;60645;56.968;24.196;2022-10-17T19:41:32;6.78;;;1.90;;
72603;SDS011;60645;56.968;24.196;2022-10-17T19:44:28;5.63;;;1.90;;
72603;SDS011;60645;56.968;24.196;2022-10-17T19:47:26;10.27;;;1.75;;
72603;SDS011;60645;56.968;24.196;2022-10-17T19:50:23;5.22;;;2.42;;
72603;SDS011;60645;56.968;24.196;2022-10-17T19:53:38;6.25;;;1.52;;
72603;SDS011;60645;56.968;24.196;2022-10-17T19:56:37;5.78;;;1.95;;
72603;SDS011;60645;56.968;24.196;2022-10-17T19:59:35;5.43;;;1.67;;
72603;SDS011;60645;56.968;24.196;2022-10-17T20:02:27;7.43;;;1.80;;
72603;SDS011;60645;56.968;24.196;2022-10-17T20:05:17;5.45;;;1.58;;
72603;SDS011;60645;56.968;24.196;2022-10-17T20:08:13;6.10;;;1.92;;
72603;SDS011;60645;56.968;24.196;2022-10-17T20:11:27;5.93;;;2.45;;
72603;SDS011;60645;56.968;24.196;2022-10-17T20:14:28;4.80;;;1.73;;
72603;SDS011;60645;56.968;24.196;2022-10-17T20:17:17;5.57;;;1.83;;
72603;SDS011;60645;56.968;24.196;2022-10-17T20:20:17;5.60;;;1.45;;
72603;SDS011;60645;56.968;24.196;2022-10-17T20:23:25;6.70;;;1.85;;
72603;SDS011;60645;56.968;24.196;2022-10-17T20:26:21;3.40;;;1.80;;
72603;SDS011;60645;56.968;24.196;2022-10-17T20:29:19;5.32;;;1.77;;
72603;SDS011;60645;56.968;24.196;2022-10-17T20:32:10;4.38;;;1.92;;
72603;SDS011;60645;56.968;24.196;2022-10-17T20:35:01;4.10;;;1.63;;
72603;SDS011;60645;56.968;24.196;2022-10-17T20:38:12;4.05;;;2.05;;
72603;SDS011;60645;56.968;24.196;2022-10-17T20:41:08;5.47;;;1.42;;
72603;SDS011;60645;56.968;24.196;2022-10-17T20:44:23;4.45;;;1.88;;
72603;SDS011;60645;56.968;24.196;2022-10-17T20:47:56;3.72;;;1.52;;
72603;SDS011;60645;56.968;24.196;2022-10-17T20:51:09;3.97;;;1.48;;
72603;SDS011;60645;56.968;24.196;2022-10-17T20:54:16;4.00;;;1.65;;
72603;SDS011;60645;56.968;24.196;2022-10-17T20:57:29;3.60;;;1.35;;
72603;SDS011;60645;56.968;24.196;2022-10-17T21:00:31;3.72;;;1.42;;
72603;SDS011;60645;56.968;24.196;2022-10-17T21:03:28;6.78;;;1.35;;
72603;SDS011;60645;56.968;24.196;2022-10-17T21:06:15;3.13;;;1.25;;
72603;SDS011;60645;56.968;24.196;2022-10-17T21:08:57;2.60;;;1.02;;
72603;SDS011;60645;56.968;24.196;2022-10-17T21:12:01;3.88;;;1.50;;
72603;SDS011;60645;56.968;24.196;2022-10-17T21:15:16;3.30;;;1.75;;